Time;durP1;ratioP1;P1;durP2;ratioP2;P2;SDS_P1;SDS_P2;PMS_P1;PMS_P2;Temp;Humidity;BMP_temperature;BMP_pressure;BME280_temperature;BME280_humidity;BME280_pressure;Samples;Min_cycle;Max_cycle;Signal;HPM_P1;HPM_P2
2023/06/20 00:00:28;;;;;;;7.43;6.90;;;;;;;;;;2094678;28;20037;-64
2023/06/20 00:01:47;;;;;;;7.32;6.80;;;;;;;;;;2095736;28;20053;-63
2023/06/20 00:03:06;;;;;;;7.15;6.65;;;;;;;;;;2095274;28;20445;-64
2023/06/20 00:04:25;;;;;;;7.20;6.78;;;;;;;;;;2094287;28;20041;-64
2023/06/20 00:05:44;;;;;;;7.15;6.65;;;;;;;;;;2095255;28;20730;-64
2023/06/20 00:07:03;;;;;;;7.90;7.30;;;;;;;;;;2094836;28;20044;-64
2023/06/20 00:08:22;;;;;;;7.97;7.38;;;;;;;;;;2094874;28;20041;-64
2023/06/20 00:09:41;;;;;;;7.65;7.10;;;;;;;;;;2085399;28;20025;-64
2023/06/20 00:10:59;;;;;;;7.45;6.85;;;;;;;;;;2090585;28;20028;-64
2023/06/20 00:12:18;;;;;;;7.43;6.90;;;;;;;;;;2095274;28;20036;-64
2023/06/20 00:13:42;;;;;;;7.90;7.30;;;;;;;;;;2095940;28;20269;-64
2023/06/20 00:15:00;;;;;;;;;;;;;;;;;;2094294;28;20032;-64
2023/06/20 00:16:20;;;;;;;8.20;7.68;;;;;;;;;;2094633;28;19904;-64
2023/06/20 00:17:39;;;;;;;7.50;6.85;;;;;;;;;;2094657;28;20394;-64
2023/06/20 00:18:58;;;;;;;8.90;8.10;;;;;;;;;;2092956;28;20033;-64
2023/06/20 00:20:17;;;;;;;7.43;6.65;;;;;;;;;;2094135;28;20032;-63
2023/06/20 00:21:39;;;;;;;8.27;7.78;;;;;;;;;;2096216;28;20020;-64
2023/06/20 00:22:58;;;;;;;8.40;7.78;;;;;;;;;;2095611;28;20111;-64
2023/06/20 00:24:17;;;;;;;8.50;7.90;;;;;;;;;;2094953;28;20029;-64
2023/06/20 00:25:36;;;;;;;8.73;8.02;;;;;;;;;;2095766;28;20029;-64
2023/06/20 00:26:56;;;;;;;7.43;6.93;;;;;;;;;;2094912;28;20497;-64
2023/06/20 00:28:18;;;;;;;7.82;7.32;;;;;;;;;;2091676;28;20032;-65
2023/06/20 00:29:37;;;;;;;7.85;7.35;;;;;;;;;;2092649;28;20037;-64
2023/06/20 00:30:56;;;;;;;7.40;6.90;;;;;;;;;;2094654;28;20020;-65
2023/06/20 00:32:15;;;;;;;7.75;7.22;;;;;;;;;;2086422;28;20029;-64
2023/06/20 00:33:36;;;;;;;6.82;6.43;;;;;;;;;;2090701;28;20040;-65
2023/06/20 00:34:58;;;;;;;8.10;7.45;;;;;;;;;;2094524;28;20040;-64
2023/06/20 00:36:18;;;;;;;8.45;7.97;;;;;;;;;;2093927;28;20045;-64
2023/06/20 00:37:38;;;;;;;8.57;7.90;;;;;;;;;;2093878;28;20217;-64
2023/06/20 00:38:57;;;;;;;8.75;8.00;;;;;;;;;;2094027;28;20029;-63
2023/06/20 00:40:16;;;;;;;8.65;7.97;;;;;;;;;;2093990;28;20533;-64
2023/06/20 00:41:35;;;;;;;8.10;7.50;;;;;;;;;;2096579;28;20983;-64
2023/06/20 00:42:54;;;;;;;8.70;7.95;;;;;;;;;;2095345;28;20017;-64
2023/06/20 00:44:13;;;;;;;8.55;7.95;;;;;;;;;;2096060;28;20537;-64
2023/06/20 00:45:33;;;;;;;7.80;7.30;;;;;;;;;;2093755;28;20028;-64
2023/06/20 00:46:52;;;;;;;6.85;6.45;;;;;;;;;;2094084;28;20041;-64
2023/06/20 00:48:11;;;;;;;7.00;6.60;;;;;;;;;;2094885;28;20028;-64
2023/06/20 00:49:29;;;;;;;8.27;7.70;;;;;;;;;;2092988;28;20107;-63
2023/06/20 00:50:50;;;;;;;7.80;7.10;;;;;;;;;;2093552;28;20485;-64
2023/06/20 00:52:10;;;;;;;7.18;6.78;;;;;;;;;;2095238;28;20477;-64
2023/06/20 00:53:29;;;;;;;8.15;7.65;;;;;;;;;;2093009;28;20440;-64
2023/06/20 00:54:48;;;;;;;7.32;6.72;;;;;;;;;;2092808;28;20040;-63
2023/06/20 00:56:08;;;;;;;7.35;6.78;;;;;;;;;;2094849;28;20433;-64
2023/06/20 00:57:27;;;;;;;7.53;7.03;;;;;;;;;;2094004;28;20020;-64
2023/06/20 00:58:46;;;;;;;7.90;7.25;;;;;;;;;;2095309;28;20029;-64
2023/06/20 01:00:11;;;;;;;7.60;7.10;;;;;;;;;;2090083;28;20024;-64
2023/06/20 01:01:33;;;;;;;8.30;7.75;;;;;;;;;;2095293;28;20033;-64
2023/06/20 01:02:54;;;;;;;7.85;7.22;;;;;;;;;;2086313;28;20600;-64
2023/06/20 01:04:13;;;;;;;7.25;6.75;;;;;;;;;;2091376;28;20036;-64
2023/06/20 01:05:33;;;;;;;7.55;7.05;;;;;;;;;;2096074;28;20560;-64
2023/06/20 01:06:59;;;;;;;8.00;7.30;;;;;;;;;;2095054;28;20111;-64
2023/06/20 01:08:26;;;;;;;7.65;7.18;;;;;;;;;;2094613;28;20024;-64
2023/06/20 01:09:55;;;;;;;7.80;7.30;;;;;;;;;;2093883;28;20040;-64
2023/06/20 01:11:14;;;;;;;7.28;6.70;;;;;;;;;;2093975;28;20485;-64
2023/06/20 01:13:06;;;;;;;8.25;7.65;;;;;;;;;;2095811;28;20493;-64
2023/06/20 01:14:29;;;;;;;7.65;7.25;;;;;;;;;;2056678;28;20031;-64
2023/06/20 01:16:14;;;;;;;8.20;7.70;;;;;;;;;;2092437;28;20036;-65
2023/06/20 01:17:42;;;;;;;7.68;7.28;;;;;;;;;;2094296;28;20028;-65
2023/06/20 01:19:20;;;;;;;8.60;8.00;;;;;;;;;;2094980;28;20426;-64
2023/06/20 01:20:46;;;;;;;8.82;8.00;;;;;;;;;;2095252;28;20024;-64
2023/06/20 01:22:09;;;;;;;8.48;7.88;;;;;;;;;;2097013;28;20024;-64
2023/06/20 01:23:29;;;;;;;;;;;;;;;;;;2095192;28;20052;-64
2023/06/20 01:24:58;;;;;;;8.50;8.00;;;;;;;;;;2093448;28;20437;-63
2023/06/20 01:26:23;;;;;;;8.40;7.82;;;;;;;;;;2091958;28;20028;-64
2023/06/20 01:27:50;;;;;;;8.77;8.18;;;;;;;;;;2093587;28;20044;-64
2023/06/20 01:29:12;;;;;;;8.48;7.93;;;;;;;;;;2094404;28;20029;-63
2023/06/20 01:30:58;;;;;;;9.10;8.38;;;;;;;;;;2093364;28;20024;-64
2023/06/20 01:32:18;;;;;;;8.90;8.30;;;;;;;;;;2097066;28;20036;-69
2023/06/20 01:33:46;;;;;;;9.00;8.40;;;;;;;;;;2093046;28;20103;-64
2023/06/20 01:35:07;;;;;;;8.75;8.15;;;;;;;;;;2096931;28;20493;-64
2023/06/20 01:36:28;;;;;;;9.45;8.63;;;;;;;;;;2092482;28;20029;-64
2023/06/20 01:37:52;;;;;;;9.93;9.02;;;;;;;;;;2093387;28;20662;-64
2023/06/20 01:39:14;;;;;;;8.88;8.25;;;;;;;;;;2093234;28;20029;-64
2023/06/20 01:40:34;;;;;;;8.77;8.25;;;;;;;;;;2095650;28;20025;-64
2023/06/20 01:41:57;;;;;;;8.48;7.97;;;;;;;;;;2092088;28;20219;-64
2023/06/20 01:43:17;;;;;;;9.48;8.70;;;;;;;;;;2090853;28;20043;-63
2023/06/20 01:44:38;;;;;;;9.55;8.75;;;;;;;;;;2082049;28;20029;-64
2023/06/20 01:45:57;;;;;;;13.40;9.45;;;;;;;;;;2089837;28;20029;-64
2023/06/20 01:47:18;;;;;;;9.32;8.63;;;;;;;;;;2083019;28;20021;-64
2023/06/20 01:48:38;;;;;;;10.73;9.68;;;;;;;;;;2089804;28;20033;-64
2023/06/20 01:49:59;;;;;;;9.73;9.02;;;;;;;;;;2093381;28;20056;-64
2023/06/20 01:51:18;;;;;;;9.02;8.43;;;;;;;;;;2093300;28;20025;-64
2023/06/20 01:52:38;;;;;;;9.02;8.43;;;;;;;;;;2094818;28;20025;-65
2023/06/20 01:53:57;;;;;;;9.10;8.45;;;;;;;;;;2093119;28;20537;-65
2023/06/20 01:55:20;;;;;;;9.82;9.00;;;;;;;;;;2094588;28;20053;-66
2023/06/20 01:56:42;;;;;;;9.27;8.60;;;;;;;;;;2092890;28;20021;-64
2023/06/20 01:58:02;;;;;;;9.15;8.45;;;;;;;;;;2084786;28;20033;-64
2023/06/20 01:59:20;;;;;;;9.57;8.88;;;;;;;;;;2092268;28;20494;-64
2023/06/20 02:00:40;;;;;;;9.02;8.43;;;;;;;;;;2093768;28;20060;-64
2023/06/20 02:01:59;;;;;;;9.35;8.75;;;;;;;;;;2082894;28;20030;-64
2023/06/20 02:03:18;;;;;;;9.20;8.50;;;;;;;;;;2092136;28;20040;-64
2023/06/20 02:04:39;;;;;;;9.30;8.70;;;;;;;;;;2086012;28;20025;-64
2023/06/20 02:05:59;;;;;;;9.88;9.07;;;;;;;;;;2089906;28;20056;-64
2023/06/20 02:07:18;;;;;;;9.40;8.60;;;;;;;;;;2094676;28;20064;-64
2023/06/20 02:08:38;;;;;;;8.82;8.20;;;;;;;;;;2093046;28;20493;-65
2023/06/20 02:09:58;;;;;;;8.73;8.13;;;;;;;;;;2095209;28;20037;-64
2023/06/20 02:11:18;;;;;;;9.77;8.98;;;;;;;;;;2092381;28;20064;-64
2023/06/20 02:12:38;;;;;;;10.15;9.23;;;;;;;;;;2094474;28;20028;-65
2023/06/20 02:13:57;;;;;;;9.68;8.77;;;;;;;;;;2095583;28;20036;-64
2023/06/20 02:15:18;;;;;;;9.50;8.70;;;;;;;;;;2093001;28;20020;-62
2023/06/20 02:16:37;;;;;;;8.93;8.02;;;;;;;;;;2095712;28;20071;-65
2023/06/20 02:17:56;;;;;;;10.02;9.32;;;;;;;;;;2094746;28;20024;-64
2023/06/20 02:19:15;;;;;;;9.43;8.82;;;;;;;;;;2093364;28;20025;-64
2023/06/20 02:20:34;;;;;;;10.23;9.50;;;;;;;;;;2095170;28;20103;-64
2023/06/20 02:21:55;;;;;;;8.88;8.27;;;;;;;;;;2097256;28;20030;-64
2023/06/20 02:23:15;;;;;;;9.60;9.00;;;;;;;;;;2094375;28;20378;-64
2023/06/20 02:24:36;;;;;;;10.45;9.63;;;;;;;;;;2095455;28;20020;-64
2023/06/20 02:26:08;;;;;;;10.30;9.50;;;;;;;;;;2092144;28;20041;-64
2023/06/20 02:27:27;;;;;;;10.30;9.35;;;;;;;;;;2088765;28;20040;-64
2023/06/20 02:28:47;;;;;;;9.15;8.30;;;;;;;;;;2092410;28;20032;-64
2023/06/20 02:30:09;;;;;;;10.98;8.88;;;;;;;;;;2093461;28;20033;-64
2023/06/20 02:31:31;;;;;;;9.35;8.73;;;;;;;;;;2094296;28;20508;-64
2023/06/20 02:32:51;;;;;;;8.88;8.27;;;;;;;;;;2093066;28;20032;-65
2023/06/20 02:34:13;;;;;;;9.13;8.52;;;;;;;;;;2093818;28;20032;-65
2023/06/20 02:35:33;;;;;;;8.23;7.43;;;;;;;;;;2084149;28;20639;-65
2023/06/20 02:36:55;;;;;;;8.32;7.70;;;;;;;;;;2091197;28;20028;-65
2023/06/20 02:38:14;;;;;;;9.48;8.68;;;;;;;;;;2092246;28;20028;-66
2023/06/20 02:39:33;;;;;;;8.32;7.53;;;;;;;;;;2093713;28;20032;-65
2023/06/20 02:40:52;;;;;;;8.10;7.35;;;;;;;;;;2093357;28;20029;-64
2023/06/20 02:42:11;;;;;;;7.47;7.03;;;;;;;;;;2093850;28;20029;-65
2023/06/20 02:43:30;;;;;;;7.13;6.72;;;;;;;;;;2093870;28;20029;-65
2023/06/20 02:44:49;;;;;;;8.07;7.50;;;;;;;;;;2092743;28;20783;-64
2023/06/20 02:46:22;;;;;;;9.02;8.32;;;;;;;;;;2095224;28;20131;-65
2023/06/20 02:47:53;;;;;;;9.70;8.80;;;;;;;;;;2095862;28;20032;-65
2023/06/20 02:49:20;;;;;;;8.80;8.18;;;;;;;;;;2093418;28;20032;-65
2023/06/20 02:50:41;;;;;;;8.52;7.93;;;;;;;;;;2093621;28;20107;-65
2023/06/20 02:52:12;;;;;;;9.52;8.73;;;;;;;;;;2093223;28;20021;-68
2023/06/20 02:53:49;;;;;;;9.23;8.45;;;;;;;;;;2094866;28;20473;-65
2023/06/20 02:55:14;;;;;;;9.98;9.15;;;;;;;;;;2095336;28;20040;-65
2023/06/20 02:56:35;;;;;;;9.50;8.80;;;;;;;;;;2094441;28;20013;-65
2023/06/20 02:57:56;;;;;;;9.10;8.35;;;;;;;;;;2094727;28;20025;-64
2023/06/20 02:59:15;;;;;;;8.40;7.80;;;;;;;;;;2093510;28;20029;-66
2023/06/20 03:00:35;;;;;;;7.53;7.03;;;;;;;;;;2095566;28;20397;-66
2023/06/20 03:01:56;;;;;;;9.15;8.38;;;;;;;;;;2094745;28;20389;-65
2023/06/20 03:03:22;;;;;;;8.60;7.90;;;;;;;;;;2097284;28;20440;-67
2023/06/20 03:04:41;;;;;;;8.40;7.80;;;;;;;;;;2096607;28;20028;-68
2023/06/20 03:06:01;;;;;;;8.20;7.50;;;;;;;;;;2095815;28;20040;-65
2023/06/20 03:07:20;;;;;;;9.50;8.70;;;;;;;;;;2094905;28;20028;-65
2023/06/20 03:08:41;;;;;;;8.43;7.85;;;;;;;;;;2096429;28;20424;-67
2023/06/20 03:10:03;;;;;;;7.95;7.40;;;;;;;;;;2096135;28;20037;-68
2023/06/20 03:11:23;;;;;;;9.77;8.13;;;;;;;;;;2097937;28;20029;-65
2023/06/20 03:12:41;;;;;;;7.72;7.18;;;;;;;;;;2096253;28;20029;-65
2023/06/20 03:14:01;;;;;;;9.27;7.60;;;;;;;;;;2096082;28;20036;-65
2023/06/20 03:15:20;;;;;;;8.43;7.63;;;;;;;;;;2096061;28;20032;-65
2023/06/20 03:16:41;;;;;;;7.35;6.95;;;;;;;;;;2096402;28;20020;-64
2023/06/20 03:18:00;;;;;;;7.75;7.28;;;;;;;;;;2095537;28;20017;-69
2023/06/20 03:19:19;;;;;;;7.82;7.13;;;;;;;;;;2094297;28;20567;-65
2023/06/20 03:20:43;;;;;;;8.27;7.60;;;;;;;;;;2097031;28;20037;-65
2023/06/20 03:22:02;;;;;;;8.00;7.50;;;;;;;;;;2087010;28;20029;-66
2023/06/20 03:23:21;;;;;;;7.80;7.32;;;;;;;;;;2092241;28;20033;-65
2023/06/20 03:24:40;;;;;;;7.78;7.28;;;;;;;;;;2095642;28;20490;-70
2023/06/20 03:25:59;;;;;;;7.68;7.15;;;;;;;;;;2095868;28;20048;-65
2023/06/20 03:27:18;;;;;;;7.25;6.85;;;;;;;;;;2097132;28;20045;-66
2023/06/20 03:28:37;;;;;;;8.20;7.40;;;;;;;;;;2097075;28;20024;-67
2023/06/20 03:29:56;;;;;;;8.45;7.85;;;;;;;;;;2096351;28;20021;-67
2023/06/20 03:31:15;;;;;;;8.27;7.68;;;;;;;;;;2093664;28;20057;-65
2023/06/20 03:32:33;;;;;;;8.75;8.00;;;;;;;;;;2095246;28;20065;-70
2023/06/20 03:33:52;;;;;;;10.25;8.02;;;;;;;;;;2096214;28;20020;-65
2023/06/20 03:35:11;;;;;;;8.73;7.93;;;;;;;;;;2096913;28;20482;-65
2023/06/20 03:36:30;;;;;;;7.75;7.10;;;;;;;;;;2094790;28;20420;-65
2023/06/20 03:37:49;;;;;;;8.32;7.65;;;;;;;;;;2094006;28;20021;-65
2023/06/20 03:39:08;;;;;;;8.50;7.78;;;;;;;;;;2087205;28;20037;-64
2023/06/20 03:40:27;;;;;;;8.18;7.40;;;;;;;;;;2092782;28;20069;-65
2023/06/20 03:41:46;;;;;;;8.63;8.02;;;;;;;;;;2095617;28;20032;-64
2023/06/20 03:43:05;;;;;;;8.57;7.82;;;;;;;;;;2095829;28;20385;-64
2023/06/20 03:44:24;;;;;;;7.68;7.18;;;;;;;;;;2096272;28;20032;-64
2023/06/20 03:45:43;;;;;;;8.27;7.78;;;;;;;;;;2094038;28;20774;-65
2023/06/20 03:47:03;;;;;;;9.85;8.63;;;;;;;;;;2096696;28;20024;-64
2023/06/20 03:48:22;;;;;;;11.43;8.30;;;;;;;;;;2096391;28;20052;-65
2023/06/20 03:49:43;;;;;;;9.50;8.63;;;;;;;;;;2085176;28;20025;-66
2023/06/20 03:51:02;;;;;;;9.02;8.45;;;;;;;;;;2084334;28;20037;-65
2023/06/20 03:52:20;;;;;;;9.50;8.68;;;;;;;;;;2092696;28;20028;-65
2023/06/20 03:53:40;;;;;;;9.88;9.05;;;;;;;;;;2082867;28;20525;-64
2023/06/20 03:54:59;;;;;;;9.35;8.50;;;;;;;;;;2090771;28;20040;-64
2023/06/20 03:56:18;;;;;;;9.30;8.57;;;;;;;;;;2093721;28;20016;-65
2023/06/20 03:57:37;;;;;;;9.75;8.93;;;;;;;;;;2094988;28;20572;-65
2023/06/20 03:58:56;;;;;;;8.77;8.15;;;;;;;;;;2096069;28;20037;-65
2023/06/20 04:00:15;;;;;;;9.25;8.45;;;;;;;;;;2093925;28;20020;-64
2023/06/20 04:01:34;;;;;;;10.13;9.13;;;;;;;;;;2095865;28;20024;-64
2023/06/20 04:02:53;;;;;;;9.75;8.88;;;;;;;;;;2095020;28;20040;-65
2023/06/20 04:04:13;;;;;;;9.50;8.70;;;;;;;;;;2096293;28;20020;-64
2023/06/20 04:05:34;;;;;;;9.95;9.00;;;;;;;;;;2093152;28;20049;-65
2023/06/20 04:06:53;;;;;;;8.82;8.13;;;;;;;;;;2095480;28;20063;-64
2023/06/20 04:08:12;;;;;;;9.13;8.32;;;;;;;;;;2093487;28;20984;-63
2023/06/20 04:09:30;;;;;;;9.50;8.85;;;;;;;;;;2095740;28;20397;-64
2023/06/20 04:10:49;;;;;;;8.48;7.78;;;;;;;;;;2092482;28;20024;-65
2023/06/20 04:12:08;;;;;;;12.73;8.23;;;;;;;;;;2086931;28;20040;-65
2023/06/20 04:13:28;;;;;;;9.13;8.40;;;;;;;;;;2091697;28;20037;-65
2023/06/20 04:14:46;;;;;;;8.02;7.28;;;;;;;;;;2086650;28;20028;-64
2023/06/20 04:16:05;;;;;;;8.07;7.57;;;;;;;;;;2089961;28;20033;-65
2023/06/20 04:17:24;;;;;;;8.45;7.75;;;;;;;;;;2094003;28;20037;-65
2023/06/20 04:18:46;;;;;;;11.15;8.15;;;;;;;;;;2096193;28;20556;-65
2023/06/20 04:20:11;;;;;;;8.25;7.65;;;;;;;;;;2094634;28;20067;-64
2023/06/20 04:21:31;;;;;;;9.20;8.40;;;;;;;;;;2092705;28;20032;-64
2023/06/20 04:22:50;;;;;;;7.85;7.13;;;;;;;;;;2085448;28;20017;-65
2023/06/20 04:24:08;;;;;;;8.75;7.85;;;;;;;;;;2091772;28;20120;-64
2023/06/20 04:25:27;;;;;;;9.13;8.00;;;;;;;;;;2094244;28;20036;-65
2023/06/20 04:26:46;;;;;;;9.15;8.35;;;;;;;;;;2088900;28;20534;-65
2023/06/20 04:28:05;;;;;;;8.50;8.00;;;;;;;;;;2092607;28;20393;-64
2023/06/20 04:29:29;;;;;;;8.95;8.15;;;;;;;;;;2095096;28;20103;-64
2023/06/20 04:30:49;;;;;;;8.48;7.97;;;;;;;;;;2094436;28;20025;-65
2023/06/20 04:32:07;;;;;;;8.63;8.02;;;;;;;;;;2096745;28;20999;-64
2023/06/20 04:33:26;;;;;;;10.25;8.43;;;;;;;;;;2095956;28;20044;-65
2023/06/20 04:34:45;;;;;;;9.25;8.40;;;;;;;;;;2086715;28;20020;-65
2023/06/20 04:36:04;;;;;;;9.70;8.48;;;;;;;;;;2091695;28;20028;-66
2023/06/20 04:37:23;;;;;;;8.10;7.50;;;;;;;;;;2092800;28;20298;-64
2023/06/20 04:38:43;;;;;;;8.05;7.35;;;;;;;;;;2093951;28;20401;-63
2023/06/20 04:40:01;;;;;;;9.98;7.90;;;;;;;;;;2092571;28;20025;-63
2023/06/20 04:41:20;;;;;;;16.02;8.68;;;;;;;;;;2094952;28;20024;-68
2023/06/20 04:42:39;;;;;;;9.18;8.27;;;;;;;;;;2091834;28;20033;-65
2023/06/20 04:44:00;;;;;;;9.20;8.50;;;;;;;;;;2095561;28;20063;-65
2023/06/20 04:45:19;;;;;;;9.45;8.48;;;;;;;;;;2095356;28;20028;-65
2023/06/20 04:46:38;;;;;;;8.52;7.82;;;;;;;;;;2085194;28;20056;-66
2023/06/20 04:47:57;;;;;;;9.02;8.32;;;;;;;;;;2092252;28;20028;-65
2023/06/20 04:49:16;;;;;;;9.48;8.70;;;;;;;;;;2095349;28;20072;-65
2023/06/20 04:50:35;;;;;;;9.30;8.60;;;;;;;;;;2093020;28;20071;-66
2023/06/20 04:51:57;;;;;;;9.30;8.60;;;;;;;;;;2090990;28;20032;-63
2023/06/20 04:53:16;;;;;;;9.20;8.43;;;;;;;;;;2091607;28;20024;-65
2023/06/20 04:54:35;;;;;;;8.80;7.70;;;;;;;;;;2090924;28;20119;-64
2023/06/20 04:55:54;;;;;;;9.63;8.77;;;;;;;;;;2091576;28;20036;-65
2023/06/20 04:57:13;;;;;;;8.60;7.90;;;;;;;;;;2093846;28;20026;-63
2023/06/20 04:58:32;;;;;;;8.85;8.18;;;;;;;;;;2094318;28;20048;-65
2023/06/20 04:59:51;;;;;;;8.50;7.78;;;;;;;;;;2092359;28;20025;-65
2023/06/20 05:01:10;;;;;;;10.00;9.07;;;;;;;;;;2093960;28;20108;-64
2023/06/20 05:02:29;;;;;;;10.50;8.25;;;;;;;;;;2093434;28;20068;-63
2023/06/20 05:03:48;;;;;;;9.63;8.93;;;;;;;;;;2091891;28;20041;-63
2023/06/20 05:05:10;;;;;;;9.15;8.23;;;;;;;;;;2087756;28;20025;-64
2023/06/20 05:06:30;;;;;;;9.38;8.48;;;;;;;;;;2092544;28;20028;-63
2023/06/20 05:07:49;;;;;;;10.15;9.20;;;;;;;;;;2095266;28;20024;-63
2023/06/20 05:09:08;;;;;;;8.73;8.00;;;;;;;;;;2095950;28;20441;-64
2023/06/20 05:10:27;;;;;;;8.43;7.60;;;;;;;;;;2094426;28;20024;-64
2023/06/20 05:11:46;;;;;;;9.05;7.97;;;;;;;;;;2083292;28;20542;-64
2023/06/20 05:13:04;;;;;;;8.73;7.90;;;;;;;;;;2091511;28;20070;-64
2023/06/20 05:14:23;;;;;;;9.40;8.65;;;;;;;;;;2093458;28;20037;-63
2023/06/20 05:15:42;;;;;;;8.40;7.45;;;;;;;;;;2091204;28;20052;-64
2023/06/20 05:17:02;;;;;;;8.50;7.80;;;;;;;;;;2094448;28;20334;-63
2023/06/20 05:18:21;;;;;;;7.82;7.38;;;;;;;;;;2094253;28;20025;-63
2023/06/20 05:19:40;;;;;;;9.43;8.57;;;;;;;;;;2093565;28;20032;-63
2023/06/20 05:20:59;;;;;;;10.55;9.32;;;;;;;;;;2096079;28;20389;-65
2023/06/20 05:22:18;;;;;;;10.07;9.27;;;;;;;;;;2091346;28;20032;-65
2023/06/20 05:23:38;;;;;;;9.60;8.63;;;;;;;;;;2086323;28;20897;-65
2023/06/20 05:24:57;;;;;;;9.43;8.48;;;;;;;;;;2090855;28;20024;-66
2023/06/20 05:26:16;;;;;;;8.55;7.93;;;;;;;;;;2092952;28;20029;-65
2023/06/20 05:27:35;;;;;;;8.20;7.60;;;;;;;;;;2094753;28;21003;-65
2023/06/20 05:28:54;;;;;;;9.95;9.07;;;;;;;;;;2091231;28;20016;-65
2023/06/20 05:30:13;;;;;;;10.15;9.20;;;;;;;;;;2091948;28;20120;-66
2023/06/20 05:31:32;;;;;;;8.27;7.57;;;;;;;;;;2094587;28;20115;-65
2023/06/20 05:32:51;;;;;;;9.20;8.40;;;;;;;;;;2082151;28;20021;-66
2023/06/20 05:34:10;;;;;;;12.07;9.13;;;;;;;;;;2089348;28;20025;-63
2023/06/20 05:35:29;;;;;;;8.40;7.68;;;;;;;;;;2094207;28;20482;-65
2023/06/20 05:36:48;;;;;;;8.85;8.00;;;;;;;;;;2091239;28;20103;-65
2023/06/20 05:38:08;;;;;;;8.45;7.85;;;;;;;;;;2092639;28;20024;-64
2023/06/20 05:39:27;;;;;;;13.68;7.63;;;;;;;;;;2086185;28;20198;-65
2023/06/20 05:40:46;;;;;;;7.07;6.55;;;;;;;;;;2090091;28;20482;-65
2023/06/20 05:42:05;;;;;;;8.13;6.93;;;;;;;;;;2083328;28;20739;-65
2023/06/20 05:43:25;;;;;;;8.77;7.85;;;;;;;;;;2088236;28;20409;-66
2023/06/20 05:44:44;;;;;;;7.90;7.40;;;;;;;;;;2091524;28;20032;-65
2023/06/20 05:46:03;;;;;;;10.15;8.55;;;;;;;;;;2090760;28;20040;-65
2023/06/20 05:47:22;;;;;;;7.70;7.10;;;;;;;;;;2092273;28;20436;-65
2023/06/20 05:48:43;;;;;;;8.57;7.78;;;;;;;;;;2089751;28;20036;-65
2023/06/20 05:50:03;;;;;;;10.57;7.78;;;;;;;;;;2091861;28;20032;-65
2023/06/20 05:51:22;;;;;;;9.75;7.60;;;;;;;;;;2094257;28;20033;-65
2023/06/20 05:52:42;;;;;;;7.85;6.53;;;;;;;;;;2093534;28;20033;-65
2023/06/20 05:54:01;;;;;;;7.22;6.72;;;;;;;;;;2091639;28;20521;-65
2023/06/20 05:55:20;;;;;;;7.20;6.32;;;;;;;;;;2090273;28;20028;-65
2023/06/20 05:56:39;;;;;;;6.93;6.40;;;;;;;;;;2082456;28;20506;-65
2023/06/20 05:57:59;;;;;;;6.63;6.00;;;;;;;;;;2090422;28;20028;-65
2023/06/20 05:59:18;;;;;;;6.28;5.88;;;;;;;;;;2082651;28;20021;-65
2023/06/20 06:00:37;;;;;;;6.30;5.75;;;;;;;;;;2088098;28;20026;-65
2023/06/20 06:01:57;;;;;;;6.50;5.90;;;;;;;;;;2092563;28;20032;-65
2023/06/20 06:03:18;;;;;;;6.68;5.13;;;;;;;;;;2090565;28;20044;-64
2023/06/20 06:04:37;;;;;;;5.03;4.72;;;;;;;;;;2090403;28;20033;-64
2023/06/20 06:05:57;;;;;;;5.63;5.13;;;;;;;;;;2089626;28;20024;-63
2023/06/20 06:07:16;;;;;;;6.00;5.32;;;;;;;;;;2090525;28;20115;-64
2023/06/20 06:08:36;;;;;;;5.85;5.18;;;;;;;;;;2093462;28;20032;-65
2023/06/20 06:09:55;;;;;;;6.55;5.72;;;;;;;;;;2094773;28;20033;-63
2023/06/20 06:11:15;;;;;;;6.45;5.88;;;;;;;;;;2093482;28;20036;-64
2023/06/20 06:12:35;;;;;;;6.82;5.88;;;;;;;;;;2095271;28;20115;-64
2023/06/20 06:13:54;;;;;;;6.20;5.70;;;;;;;;;;2093125;28;20111;-63
2023/06/20 06:15:13;;;;;;;6.18;5.75;;;;;;;;;;2091860;28;20108;-63
2023/06/20 06:16:33;;;;;;;7.32;6.63;;;;;;;;;;2093940;28;20029;-64
2023/06/20 06:17:51;;;;;;;6.22;5.63;;;;;;;;;;2092647;28;20477;-64
2023/06/20 06:19:10;;;;;;;6.47;6.03;;;;;;;;;;2089307;28;20040;-65
2023/06/20 06:20:29;;;;;;;5.95;5.50;;;;;;;;;;2096504;28;20025;-63
2023/06/20 06:21:48;;;;;;;7.07;6.38;;;;;;;;;;2090177;28;20392;-63
2023/06/20 06:23:08;;;;;;;5.40;5.00;;;;;;;;;;2091115;28;20033;-63
2023/06/20 06:24:27;;;;;;;5.85;5.07;;;;;;;;;;2095545;28;20028;-64
2023/06/20 06:25:46;;;;;;;5.15;4.65;;;;;;;;;;2092996;28;20017;-64
2023/06/20 06:27:05;;;;;;;5.57;5.10;;;;;;;;;;2094939;28;20040;-63
2023/06/20 06:28:27;;;;;;;4.80;4.50;;;;;;;;;;2094783;28;20041;-64
2023/06/20 06:29:46;;;;;;;5.25;4.68;;;;;;;;;;2092455;28;20425;-63
2023/06/20 06:31:07;;;;;;;5.75;5.25;;;;;;;;;;2094277;28;20037;-65
2023/06/20 06:32:27;;;;;;;5.40;5.00;;;;;;;;;;2094218;28;20377;-64
2023/06/20 06:33:46;;;;;;;8.45;5.75;;;;;;;;;;2094373;28;20024;-64
2023/06/20 06:35:06;;;;;;;4.22;4.00;;;;;;;;;;2087150;28;20033;-64
2023/06/20 06:36:25;;;;;;;6.38;5.55;;;;;;;;;;2091221;28;20020;-65
2023/06/20 06:37:45;;;;;;;5.95;5.45;;;;;;;;;;2095375;28;20038;-65
2023/06/20 06:39:04;;;;;;;5.57;5.10;;;;;;;;;;2095768;28;20544;-65
2023/06/20 06:40:23;;;;;;;5.68;5.05;;;;;;;;;;2083426;28;20029;-65
2023/06/20 06:41:43;;;;;;;6.22;5.63;;;;;;;;;;2087164;28;20025;-65
2023/06/20 06:43:02;;;;;;;5.60;5.20;;;;;;;;;;2093069;28;20482;-65
2023/06/20 06:44:21;;;;;;;5.90;5.40;;;;;;;;;;2093875;28;20032;-68
2023/06/20 06:45:40;;;;;;;5.30;5.00;;;;;;;;;;2093534;28;20083;-65
2023/06/20 06:47:01;;;;;;;7.68;5.30;;;;;;;;;;2084332;28;20391;-65
2023/06/20 06:48:20;;;;;;;8.55;5.47;;;;;;;;;;2088677;28;20025;-65
2023/06/20 06:49:39;;;;;;;6.88;5.10;;;;;;;;;;2092980;28;20089;-65
2023/06/20 06:50:58;;;;;;;5.38;4.90;;;;;;;;;;2094199;28;20032;-65
2023/06/20 06:52:17;;;;;;;5.68;4.85;;;;;;;;;;2094824;28;20101;-65
2023/06/20 06:53:37;;;;;;;5.53;5.03;;;;;;;;;;2095554;28;20582;-65
2023/06/20 06:54:56;;;;;;;4.95;4.55;;;;;;;;;;2092917;28;20033;-64
2023/06/20 06:56:15;;;;;;;5.65;5.20;;;;;;;;;;2094083;28;20033;-64
2023/06/20 06:57:34;;;;;;;4.70;4.40;;;;;;;;;;2087632;28;20104;-64
2023/06/20 06:58:56;;;;;;;5.63;5.22;;;;;;;;;;2084795;28;20108;-64
2023/06/20 07:00:15;;;;;;;5.25;4.95;;;;;;;;;;2092506;28;20020;-64
2023/06/20 07:01:34;;;;;;;5.35;4.95;;;;;;;;;;2090031;28;20029;-64
2023/06/20 07:02:53;;;;;;;4.70;4.30;;;;;;;;;;2083536;28;20085;-64
2023/06/20 07:04:14;;;;;;;4.88;4.53;;;;;;;;;;2085851;28;20029;-64
2023/06/20 07:05:33;;;;;;;4.53;4.18;;;;;;;;;;2092137;28;20033;-64
2023/06/20 07:06:52;;;;;;;4.78;4.38;;;;;;;;;;2092760;28;20025;-64
2023/06/20 07:08:11;;;;;;;5.28;4.40;;;;;;;;;;2091178;28;20033;-65
2023/06/20 07:09:30;;;;;;;4.70;4.32;;;;;;;;;;2092099;28;20052;-64
2023/06/20 07:10:51;;;;;;;4.45;4.05;;;;;;;;;;2091722;28;20033;-63
2023/06/20 07:12:10;;;;;;;5.07;4.65;;;;;;;;;;2092704;28;20385;-63
2023/06/20 07:13:29;;;;;;;5.57;4.50;;;;;;;;;;2091009;28;20561;-63
2023/06/20 07:14:50;;;;;;;5.95;5.22;;;;;;;;;;2091373;28;20032;-64
2023/06/20 07:16:09;;;;;;;5.22;4.88;;;;;;;;;;2092063;28;20041;-63
2023/06/20 07:17:29;;;;;;;5.95;5.45;;;;;;;;;;2085881;28;20021;-63
2023/06/20 07:18:48;;;;;;;4.97;4.68;;;;;;;;;;2090465;28;20087;-64
2023/06/20 07:20:08;;;;;;;4.72;4.30;;;;;;;;;;2084309;28;20033;-63
2023/06/20 07:21:27;;;;;;;4.63;4.32;;;;;;;;;;2091819;28;20389;-64
2023/06/20 07:22:45;;;;;;;4.93;4.57;;;;;;;;;;2090718;28;20033;-66
2023/06/20 07:24:04;;;;;;;5.35;4.55;;;;;;;;;;2089392;28;20758;-63
2023/06/20 07:25:24;;;;;;;4.25;4.05;;;;;;;;;;2092751;28;20060;-64
2023/06/20 07:26:42;;;;;;;5.82;4.40;;;;;;;;;;2092629;28;20025;-64
2023/06/20 07:28:02;;;;;;;4.72;4.30;;;;;;;;;;2094192;28;20028;-64
2023/06/20 07:29:21;;;;;;;4.75;4.38;;;;;;;;;;2084119;28;20025;-65
2023/06/20 07:30:40;;;;;;;4.65;4.35;;;;;;;;;;2087254;28;20032;-66
2023/06/20 07:31:59;;;;;;;4.45;4.22;;;;;;;;;;2091887;28;20037;-64
2023/06/20 07:33:18;;;;;;;4.38;4.10;;;;;;;;;;2091265;28;20115;-64
2023/06/20 07:34:37;;;;;;;4.43;3.97;;;;;;;;;;2091450;28;20028;-64
2023/06/20 07:35:58;;;;;;;7.45;4.90;;;;;;;;;;2093943;28;20032;-65
2023/06/20 07:37:17;;;;;;;5.45;3.92;;;;;;;;;;2095362;28;20609;-66
2023/06/20 07:38:36;;;;;;;4.20;3.80;;;;;;;;;;2094773;28;20115;-64
2023/06/20 07:39:55;;;;;;;4.03;3.80;;;;;;;;;;2094377;28;20021;-64
2023/06/20 07:41:14;;;;;;;4.13;3.83;;;;;;;;;;2093377;28;20029;-63
2023/06/20 07:42:33;;;;;;;4.90;4.18;;;;;;;;;;2090672;28;20474;-65
2023/06/20 07:43:52;;;;;;;4.03;3.80;;;;;;;;;;2095057;28;20033;-65
2023/06/20 07:45:11;;;;;;;4.60;4.22;;;;;;;;;;2093014;28;20028;-64
2023/06/20 07:46:30;;;;;;;4.55;4.30;;;;;;;;;;2094227;28;20029;-64
2023/06/20 07:47:49;;;;;;;4.55;4.15;;;;;;;;;;2086293;28;20025;-64
2023/06/20 07:49:08;;;;;;;5.38;4.35;;;;;;;;;;2081805;28;20512;-65
2023/06/20 07:50:27;;;;;;;4.03;3.83;;;;;;;;;;2087826;28;20952;-64
2023/06/20 07:51:46;;;;;;;5.30;3.92;;;;;;;;;;2092146;28;20025;-64
2023/06/20 07:53:05;;;;;;;4.10;3.80;;;;;;;;;;2091789;28;20017;-64
2023/06/20 07:54:25;;;;;;;4.80;4.38;;;;;;;;;;2095774;28;20025;-64
2023/06/20 07:55:44;;;;;;;4.18;3.78;;;;;;;;;;2095359;28;20033;-64
2023/06/20 07:57:03;;;;;;;4.15;3.85;;;;;;;;;;2095728;28;20060;-64
2023/06/20 07:58:22;;;;;;;4.28;3.90;;;;;;;;;;2095294;28;20021;-66
2023/06/20 07:59:41;;;;;;;4.68;3.92;;;;;;;;;;2091887;28;20385;-65
2023/06/20 08:01:00;;;;;;;4.90;4.45;;;;;;;;;;2093380;28;20037;-65